Portada
METAR-TAF:

METAR-TAF

Aeroports :

Chugiak, Alaska, Estats Units d'Amèrica

latitud: 61-25N, longitud: 149-31W, altitud: 29 m

Observació

L'informe es va fer fa 38 minuts, a les 19:56 UTC
Vent calma
Temperatura 15°C
Humitat 59%
Pressió 1011 hPa
Visibilitat: 16.1 km
Cel ennuvolat a una alçada de 8000 ft
Cel ennuvolat a una alçada de 9500 ft
Cel ennuvolat a una alçada de 11000 ft

METAR: PABV 151956Z AUTO 00000KT 10SM BKN080 BKN095 BKN110 15/07 A2985 RMK AO2 SLP112 T01500072

Hora: 12:34 (20:34 UTC)


TAF: manca

Observacions i pronòstics meteorològics de més de 4000 aeroports (METAR i TAF).

Les estacions disponibles són els punts grocs i vermells al mapa.

Posi el ratolí al punt desitjat per veure el nom de l'estació.

Feu clic per veure les observacions i els pronòstics meteorològics.

Per canviar el mapa: feu clic els botons verds amb una creu de color negre per apropar; al botó verd amb un guió per allunyar la imatge; o en les fletxes verdes per a mapes adjacents.


METAR-TAF: